Terminal Aerodrome Forecast
Issued by NWS

Home | Current Version | Previous Version | Text Only | Print | Product List | Glossary On
Versions: 1 2 3 4 5 6 7 8 9 10 11 12 13 14 15 16 17 18 19 20 21 22 23 24 25 26 27 28 29 30 31 32 33 34 35 36 37 38 39 40 41 42 43 44 45 46 47 48 49 50
000
FTUS45 KBOU 022059 AAC
TAFAPA
TAF AMD
KAPA 022059Z 0221/0318 27012KT P6SM VCTS SCT080CB BKN120
      TEMPO 0221/0301 VRB18G28KT -TSRA BKN080CB
     FM030100 16014KT P6SM SCT080 BKN120
     FM030500 19011KT P6SM FEW090 SCT140 BKN200
     FM030900 17011KT P6SM FEW140 SCT220
     FM031700 15008KT P6SM SCT120 BKN200=

USA.gov is the U.S. government's official web portal to all federal, state and local government web resources and services.